createdAt,value
2023-03-20T00:02:24.413Z,23.95
2023-03-20T00:04:52.424Z,25.27
2023-03-20T00:07:19.481Z,27.50
2023-03-20T00:09:48.999Z,24.67
2023-03-20T00:12:21.598Z,25.08
2023-03-20T00:14:51.147Z,25.90
2023-03-20T00:17:23.997Z,25.67
2023-03-20T00:19:51.292Z,27.15
2023-03-20T00:22:21.152Z,27.13
2023-03-20T00:24:50.967Z,27.63
2023-03-20T00:27:18.186Z,25.23
2023-03-20T00:29:48.118Z,26.08
2023-03-20T00:32:15.598Z,28.58
2023-03-20T00:34:42.963Z,26.10
2023-03-20T00:37:12.700Z,26.80
2023-03-20T00:39:41.414Z,25.90
2023-03-20T00:42:20.426Z,28.67
2023-03-20T00:44:56.124Z,25.50
2023-03-20T00:47:25.840Z,23.60
2023-03-20T00:49:54.550Z,27.58
2023-03-20T00:52:22.612Z,23.63
2023-03-20T00:54:52.770Z,23.95
2023-03-20T00:57:24.510Z,26.02
2023-03-20T00:59:54.473Z,27.60
2023-03-20T01:02:26.082Z,26.58
2023-03-20T01:04:53.648Z,27.05
2023-03-20T01:07:23.472Z,29.15
2023-03-20T01:09:50.921Z,24.58
2023-03-20T01:12:18.080Z,27.23
2023-03-20T01:14:51.372Z,23.23
2023-03-20T01:17:23.684Z,25.95
2023-03-20T01:19:51.390Z,26.73
2023-03-20T01:22:21.073Z,27.13
2023-03-20T01:24:50.892Z,28.20
2023-03-20T01:27:19.926Z,29.48
2023-03-20T01:29:47.828Z,25.65
2023-03-20T01:32:19.453Z,24.95
2023-03-20T01:34:49.429Z,26.70
2023-03-20T01:37:25.545Z,27.50
2023-03-20T01:39:54.009Z,27.00
2023-03-20T01:42:24.000Z,25.40
2023-03-20T01:44:53.607Z,25.08
2023-03-20T01:47:23.315Z,27.05
2023-03-20T01:50:38.932Z,27.60
2023-03-20T01:53:15.035Z,27.20
2023-03-20T01:55:46.385Z,26.70
2023-03-20T01:58:19.559Z,27.60
2023-03-20T02:00:47.343Z,28.17
2023-03-20T02:03:15.709Z,25.85
2023-03-20T02:05:44.863Z,27.10
2023-03-20T02:08:29.144Z,28.38
2023-03-20T02:11:00.660Z,27.38
2023-03-20T02:13:29.495Z,27.88
2023-03-20T02:16:05.834Z,24.15
2023-03-20T02:18:33.806Z,25.80
2023-03-20T02:21:29.930Z,26.45
2023-03-20T02:24:09.214Z,26.98
2023-03-20T02:26:47.467Z,28.70
2023-03-20T02:29:29.452Z,27.73
2023-03-20T02:32:17.836Z,27.48
2023-03-20T02:34:54.013Z,29.13
2023-03-20T02:40:39.125Z,26.80
2023-03-20T02:43:26.371Z,27.95
2023-03-20T02:45:56.533Z,24.13
2023-03-20T02:48:30.660Z,26.85
2023-03-20T02:51:01.352Z,25.17
2023-03-20T02:53:28.761Z,24.88
2023-03-20T02:56:21.851Z,24.83
2023-03-20T02:58:58.187Z,25.17
2023-03-20T03:04:08.688Z,24.88
2023-03-20T03:06:42.430Z,24.50
2023-03-20T03:09:20.227Z,27.75
2023-03-20T03:12:05.373Z,25.85
2023-03-20T03:14:39.235Z,25.05
2023-03-20T03:17:11.073Z,26.92
2023-03-20T03:19:42.038Z,26.23
2023-03-20T03:22:09.610Z,26.33
2023-03-20T03:24:43.064Z,26.73
2023-03-20T03:27:16.432Z,29.17
2023-03-20T03:29:45.956Z,28.05
2023-03-20T03:32:27.618Z,26.35
2023-03-20T03:34:55.097Z,26.50
2023-03-20T03:37:26.776Z,25.25
2023-03-20T03:40:03.547Z,29.70
2023-03-20T03:42:33.141Z,27.48
2023-03-20T03:45:08.845Z,28.08
2023-03-20T03:48:00.084Z,28.25
2023-03-20T03:50:35.437Z,28.05
2023-03-20T03:53:12.048Z,27.13
2023-03-20T03:55:44.715Z,28.15
2023-03-20T03:58:19.851Z,20.92
2023-03-20T04:00:52.438Z,25.95
2023-03-20T04:03:27.718Z,26.02
2023-03-20T04:05:58.601Z,27.98
2023-03-20T04:08:28.460Z,34.10
2023-03-20T04:10:55.561Z,37.60
2023-03-20T04:13:23.013Z,33.67
2023-03-20T04:15:50.150Z,26.52
2023-03-20T04:18:20.779Z,26.23
2023-03-20T04:20:48.085Z,26.98
2023-03-20T04:23:15.760Z,28.95
2023-03-20T04:25:45.013Z,26.17
2023-03-20T04:28:14.861Z,29.17
2023-03-20T04:30:41.961Z,28.25
2023-03-20T04:33:11.808Z,29.95
2023-03-20T04:35:39.239Z,32.15
2023-03-20T04:38:06.997Z,28.70
2023-03-20T04:40:34.068Z,27.92
2023-03-20T04:43:01.378Z,27.70
2023-03-20T04:45:28.437Z,29.98
2023-03-20T04:48:00.182Z,28.75
2023-03-20T04:50:27.382Z,29.83
2023-03-20T04:52:54.742Z,28.50
2023-03-20T04:55:24.130Z,32.33
2023-03-20T04:57:56.139Z,31.23
2023-03-20T05:00:23.229Z,30.17
2023-03-20T05:02:50.682Z,31.58
2023-03-20T05:05:18.179Z,27.30
2023-03-20T05:07:47.982Z,32.22
2023-03-20T05:10:15.222Z,29.40
2023-03-20T05:12:42.633Z,32.78
2023-03-20T05:15:10.180Z,30.42
2023-03-20T05:17:39.995Z,32.28
2023-03-20T05:20:07.605Z,33.25
2023-03-20T05:22:35.005Z,29.08
2023-03-20T05:25:02.052Z,28.70
2023-03-20T05:27:29.493Z,29.20
2023-03-20T05:29:56.556Z,33.55
2023-03-20T05:32:23.901Z,34.05
2023-03-20T05:34:53.401Z,37.10
2023-03-20T05:37:20.745Z,31.45
2023-03-20T05:39:47.791Z,34.88
2023-03-20T05:42:17.860Z,31.75
2023-03-20T05:44:47.361Z,31.02
2023-03-20T05:47:14.710Z,34.42
2023-03-20T05:49:41.735Z,30.38
2023-03-20T05:52:09.113Z,38.40
2023-03-20T05:54:38.202Z,34.90
2023-03-20T05:57:08.225Z,32.13
2023-03-20T05:59:35.323Z,31.17
2023-03-20T06:02:02.649Z,28.10
2023-03-20T06:04:29.837Z,27.75
2023-03-20T06:06:57.183Z,26.80
2023-03-20T06:09:26.844Z,30.45
2023-03-20T06:11:54.205Z,26.05
2023-03-20T06:14:21.216Z,28.27
2023-03-20T06:16:50.857Z,29.05
2023-03-20T06:19:20.492Z,27.38
2023-03-20T06:21:50.397Z,27.55
2023-03-20T06:24:20.029Z,28.85
2023-03-20T06:26:47.342Z,27.50
2023-03-20T06:29:14.471Z,29.58
2023-03-20T06:31:42.017Z,26.95
2023-03-20T06:34:11.640Z,28.42
2023-03-20T06:36:44.022Z,30.73
2023-03-20T06:39:12.264Z,27.88
2023-03-20T06:41:42.065Z,30.00
2023-03-20T06:44:09.108Z,26.83
2023-03-20T06:46:36.505Z,27.75
2023-03-20T06:49:03.591Z,26.20
2023-03-20T06:51:30.953Z,29.10
2023-03-20T06:54:00.466Z,27.80
2023-03-20T06:56:27.774Z,35.05
2023-03-20T06:58:54.883Z,36.95
2023-03-20T07:01:22.261Z,29.77
2023-03-20T07:03:49.827Z,31.42
2023-03-20T07:06:17.342Z,29.95
2023-03-20T07:08:45.083Z,28.88
2023-03-20T07:11:12.432Z,27.40
2023-03-20T07:13:41.680Z,32.03
2023-03-20T07:16:11.348Z,27.67
2023-03-20T07:18:40.941Z,29.67
2023-03-20T07:21:13.956Z,30.80
2023-03-20T07:23:40.961Z,31.95
2023-03-20T07:26:08.375Z,25.17
2023-03-20T07:28:35.580Z,28.15
2023-03-20T07:31:03.040Z,29.98
2023-03-20T07:33:30.078Z,28.48
2023-03-20T07:35:57.787Z,29.58
2023-03-20T07:38:25.092Z,29.63
2023-03-20T07:40:54.382Z,30.17
2023-03-20T07:43:23.959Z,40.25
2023-03-20T07:45:51.271Z,29.83
2023-03-20T07:48:20.900Z,29.30
2023-03-20T07:50:48.291Z,30.48
2023-03-20T07:53:15.327Z,38.33
2023-03-20T07:55:44.908Z,31.60
2023-03-20T07:58:16.428Z,30.75
2023-03-20T08:00:46.062Z,29.45
2023-03-20T08:03:15.664Z,27.50
2023-03-20T08:05:45.864Z,27.58
2023-03-20T08:08:16.444Z,27.75
2023-03-20T08:10:44.023Z,30.33
2023-03-20T08:13:13.766Z,28.90
2023-03-20T08:15:41.081Z,27.50
2023-03-20T08:18:10.591Z,25.50
2023-03-20T08:20:37.943Z,26.92
2023-03-20T08:23:05.111Z,23.95
2023-03-20T08:25:35.326Z,22.05
2023-03-20T08:28:02.622Z,23.60
2023-03-20T08:30:32.470Z,25.23
2023-03-20T08:32:59.719Z,22.52
2023-03-20T08:35:33.320Z,25.17
2023-03-20T08:38:01.891Z,24.75
2023-03-20T08:40:29.684Z,21.23
2023-03-20T08:42:56.856Z,25.33
2023-03-20T08:45:26.725Z,29.48
2023-03-20T08:47:56.427Z,23.58
2023-03-20T08:50:23.961Z,19.33
2023-03-20T08:52:51.078Z,21.60
2023-03-20T08:55:18.468Z,23.85
2023-03-20T08:57:47.907Z,22.23
2023-03-20T09:00:18.088Z,23.95
2023-03-20T09:02:45.233Z,21.83
2023-03-20T09:05:15.561Z,20.40
2023-03-20T09:07:43.119Z,20.45
2023-03-20T09:10:11.469Z,19.13
2023-03-20T09:12:38.856Z,26.80
2023-03-20T09:15:06.849Z,20.98
2023-03-20T09:17:36.527Z,18.23
2023-03-20T09:20:04.590Z,19.60
2023-03-20T09:22:34.460Z,21.75
2023-03-20T09:25:01.891Z,22.38
2023-03-20T09:27:29.182Z,20.75
2023-03-20T09:29:56.570Z,20.23
2023-03-20T09:32:23.821Z,20.08
2023-03-20T09:34:51.284Z,20.70
2023-03-20T09:37:18.347Z,18.80
2023-03-20T09:39:45.714Z,19.52
2023-03-20T09:42:41.525Z,20.13
2023-03-20T09:45:17.790Z,18.25
2023-03-20T09:48:13.481Z,17.25
2023-03-20T09:51:19.497Z,18.40
2023-03-20T09:54:16.136Z,18.98
2023-03-20T09:56:43.674Z,15.95
2023-03-20T09:59:16.452Z,15.65
2023-03-20T10:02:00.775Z,14.35
2023-03-20T10:04:30.235Z,12.38
2023-03-20T10:06:57.615Z,14.55
2023-03-20T10:09:27.901Z,10.30
2023-03-20T10:12:13.756Z,11.75
2023-03-20T10:15:08.010Z,9.45
2023-03-20T10:17:53.949Z,8.68
2023-03-20T10:20:30.276Z,7.95
2023-03-20T10:23:20.871Z,7.93
2023-03-20T10:26:16.490Z,8.90
2023-03-20T10:29:00.333Z,6.28
2023-03-20T10:31:34.118Z,9.52
2023-03-20T10:34:20.107Z,9.60
2023-03-20T10:37:02.631Z,7.60
2023-03-20T10:39:51.339Z,9.73
2023-03-20T10:42:24.054Z,8.48
2023-03-20T10:44:59.993Z,12.18
2023-03-20T10:47:30.162Z,10.00
2023-03-20T10:50:19.539Z,9.85
2023-03-20T10:52:51.336Z,7.88
2023-03-20T10:55:35.165Z,9.70
2023-03-20T10:58:21.361Z,11.30
2023-03-20T11:00:49.509Z,9.40
2023-03-20T11:03:27.790Z,12.88
2023-03-20T11:06:17.988Z,9.15
2023-03-20T11:08:50.296Z,8.77
2023-03-20T11:11:30.511Z,10.35
2023-03-20T11:14:16.001Z,8.88
2023-03-20T11:16:48.665Z,9.95
2023-03-20T11:19:15.764Z,9.27
2023-03-20T11:21:54.033Z,10.35
2023-03-20T11:24:42.513Z,10.75
2023-03-20T11:27:13.094Z,13.23
2023-03-20T11:29:43.765Z,14.52
2023-03-20T11:34:50.979Z,11.68
2023-03-20T11:37:29.435Z,13.20
2023-03-20T11:40:13.659Z,11.23
2023-03-20T11:43:12.129Z,10.35
2023-03-20T11:45:48.817Z,10.25
2023-03-20T11:48:23.143Z,7.13
2023-03-20T11:50:59.764Z,7.38
2023-03-20T11:54:03.618Z,7.35
2023-03-20T11:56:33.851Z,8.02
2023-03-20T11:59:11.293Z,7.82
2023-03-20T12:01:48.417Z,15.68
2023-03-20T12:04:25.916Z,7.90
2023-03-20T12:06:55.061Z,5.35
2023-03-20T12:09:28.127Z,6.47
2023-03-20T12:12:09.950Z,4.18
2023-03-20T12:15:02.844Z,7.28
2023-03-20T12:17:44.745Z,5.32
2023-03-20T12:20:37.104Z,3.85
2023-03-20T12:23:07.159Z,5.50
2023-03-20T12:25:59.603Z,5.38
2023-03-20T12:28:41.619Z,8.88
2023-03-20T12:31:46.644Z,7.88
2023-03-20T12:34:23.113Z,8.65
2023-03-20T12:36:52.170Z,7.28
2023-03-20T12:39:33.463Z,8.02
2023-03-20T12:42:24.916Z,9.68
2023-03-20T12:44:59.908Z,9.05
2023-03-20T12:48:05.083Z,8.65
2023-03-20T12:50:54.490Z,9.95
2023-03-20T12:53:40.249Z,7.20
2023-03-20T12:56:20.822Z,6.13
2023-03-20T12:59:12.212Z,9.95
2023-03-20T13:02:17.913Z,5.53
2023-03-20T13:05:17.595Z,7.47
2023-03-20T13:08:12.900Z,7.13
2023-03-20T13:10:46.683Z,8.30
2023-03-20T13:13:33.910Z,6.40
2023-03-20T13:16:12.293Z,5.50
2023-03-20T13:18:54.566Z,7.93
2023-03-20T13:21:43.542Z,8.10
2023-03-20T13:24:33.198Z,9.65
2023-03-20T13:27:06.401Z,7.32
2023-03-20T13:29:45.287Z,9.93
2023-03-20T13:32:24.339Z,6.60
2023-03-20T13:35:09.455Z,8.43
2023-03-20T13:37:44.253Z,10.02
2023-03-20T13:40:24.171Z,10.82
2023-03-20T13:43:08.340Z,9.60
2023-03-20T13:45:39.198Z,4.97
2023-03-20T13:48:36.241Z,8.27
2023-03-20T13:51:21.415Z,9.20
2023-03-20T13:53:48.702Z,7.43
2023-03-20T13:56:24.867Z,6.55
2023-03-20T13:58:55.105Z,7.30
2023-03-20T14:01:26.238Z,8.50
2023-03-20T14:03:56.872Z,8.63
2023-03-20T14:06:43.993Z,6.53
2023-03-20T14:09:31.119Z,5.20
2023-03-20T14:12:05.306Z,8.50
2023-03-20T14:14:46.384Z,7.47
2023-03-20T14:17:13.521Z,7.00
2023-03-20T14:19:41.257Z,6.82
2023-03-20T14:22:20.001Z,7.05
2023-03-20T14:25:14.445Z,8.70
2023-03-20T14:28:05.728Z,7.32
2023-03-20T14:30:36.088Z,8.73
2023-03-20T14:33:23.753Z,8.40
2023-03-20T14:36:11.165Z,6.45
2023-03-20T14:39:07.049Z,7.07
2023-03-20T14:42:04.203Z,5.53
2023-03-20T14:44:34.050Z,6.47
2023-03-20T14:47:34.183Z,3.90
2023-03-20T14:50:01.304Z,7.10
2023-03-20T14:52:50.635Z,6.38
2023-03-20T14:55:17.616Z,6.70
2023-03-20T14:57:56.128Z,9.38
2023-03-20T15:00:25.161Z,7.30
2023-03-20T15:02:58.045Z,9.13
2023-03-20T15:05:25.134Z,10.43
2023-03-20T15:07:53.021Z,10.73
2023-03-20T15:10:20.374Z,9.68
2023-03-20T15:12:47.818Z,10.82
2023-03-20T15:15:29.617Z,11.98
2023-03-20T15:18:02.919Z,12.20
2023-03-20T15:20:30.051Z,11.60
2023-03-20T15:22:59.938Z,10.50
2023-03-20T15:25:38.901Z,12.25
2023-03-20T15:28:08.460Z,11.27
2023-03-20T15:30:39.136Z,11.65
2023-03-20T15:33:14.748Z,11.65
2023-03-20T15:35:44.627Z,11.18
2023-03-20T15:38:15.512Z,11.57
2023-03-20T15:40:51.128Z,10.60
2023-03-20T15:43:46.322Z,10.93
2023-03-20T15:49:43.602Z,12.75
2023-03-20T15:52:49.685Z,9.93
2023-03-20T15:55:46.919Z,13.68
2023-03-20T16:01:18.170Z,13.23
2023-03-20T16:03:57.146Z,14.02
2023-03-20T16:06:24.957Z,14.88
2023-03-20T16:09:05.821Z,14.57
2023-03-20T16:11:41.826Z,12.80
2023-03-20T16:14:30.049Z,16.50
2023-03-20T16:16:59.501Z,17.92
2023-03-20T16:19:28.485Z,15.60
2023-03-20T16:22:02.479Z,18.67
2023-03-20T16:24:39.720Z,17.13
2023-03-20T16:27:13.573Z,19.02
2023-03-20T16:29:43.785Z,17.88
2023-03-20T16:32:52.099Z,17.77
2023-03-20T16:35:26.484Z,21.20
2023-03-20T16:37:59.173Z,17.65
2023-03-20T16:40:37.489Z,19.65
2023-03-20T16:43:18.020Z,21.00
2023-03-20T16:45:50.771Z,20.17
2023-03-20T16:48:26.364Z,22.45
2023-03-20T16:51:20.204Z,19.33
2023-03-20T16:53:54.498Z,21.80
2023-03-20T16:56:28.402Z,22.63
2023-03-20T16:58:56.903Z,24.50
2023-03-20T17:01:27.234Z,19.52
2023-03-20T17:04:11.462Z,22.42
2023-03-20T17:06:45.951Z,19.25
2023-03-20T17:09:12.999Z,20.50
2023-03-20T17:11:47.496Z,24.33
2023-03-20T17:14:17.394Z,21.70
2023-03-20T17:16:47.461Z,20.90
2023-03-20T17:19:20.332Z,22.02
2023-03-20T17:21:50.661Z,20.25
2023-03-20T17:24:18.379Z,23.85
2023-03-20T17:27:04.009Z,24.85
2023-03-20T17:29:31.144Z,21.70
2023-03-20T17:31:58.557Z,24.95
2023-03-20T17:34:25.585Z,23.83
2023-03-20T17:36:53.000Z,24.60
2023-03-20T17:39:22.297Z,24.63
2023-03-20T17:41:49.967Z,22.38
2023-03-20T17:44:17.251Z,21.20
2023-03-20T17:46:57.356Z,23.02
2023-03-20T17:49:25.331Z,23.13
2023-03-20T17:51:53.802Z,24.55
2023-03-20T17:54:23.088Z,26.30
2023-03-20T17:56:55.055Z,24.15
2023-03-20T17:59:22.105Z,26.50
2023-03-20T18:01:49.645Z,25.27
2023-03-20T18:04:16.724Z,27.67
2023-03-20T18:06:44.121Z,25.52
2023-03-20T18:09:13.633Z,26.75
2023-03-20T18:11:40.952Z,28.63
2023-03-20T18:14:07.983Z,29.13
2023-03-20T18:16:37.543Z,41.15
2023-03-20T18:19:06.850Z,30.05
2023-03-20T18:21:34.168Z,30.52
2023-03-20T18:24:01.236Z,27.52
2023-03-20T18:26:28.642Z,30.38
2023-03-20T18:28:55.989Z,30.38
2023-03-20T18:31:23.428Z,28.75
2023-03-20T18:33:53.313Z,30.30
2023-03-20T18:36:23.051Z,30.65
2023-03-20T18:38:51.987Z,29.42
2023-03-20T18:41:19.193Z,33.38
2023-03-20T18:43:46.699Z,34.72
2023-03-20T18:46:18.350Z,34.22
2023-03-20T18:48:46.979Z,32.70
2023-03-20T18:51:14.599Z,33.22
2023-03-20T18:53:44.756Z,31.85
2023-03-20T18:56:23.506Z,33.58
2023-03-20T18:58:53.638Z,32.03
2023-03-20T19:01:23.689Z,30.30
2023-03-20T19:03:51.082Z,28.60
2023-03-20T19:06:21.555Z,30.75
2023-03-20T19:08:50.251Z,53.30
2023-03-20T19:11:21.219Z,50.28
2023-03-20T19:13:52.840Z,35.10
2023-03-20T19:16:32.890Z,33.72
2023-03-20T19:19:02.093Z,33.75
2023-03-20T19:21:33.814Z,36.72
2023-03-20T19:24:04.219Z,33.50
2023-03-20T19:26:35.809Z,35.65
2023-03-20T19:29:08.743Z,42.70
2023-03-20T19:31:36.573Z,45.95
2023-03-20T19:34:06.924Z,33.63
2023-03-20T19:36:37.799Z,36.38
2023-03-20T19:39:07.161Z,35.50
2023-03-20T19:41:36.648Z,39.97
2023-03-20T19:44:06.490Z,33.63
2023-03-20T19:46:42.242Z,33.95
2023-03-20T19:49:21.385Z,33.08
2023-03-20T19:51:49.595Z,30.85
2023-03-20T19:54:17.415Z,30.37
2023-03-20T19:56:44.520Z,50.63
2023-03-20T19:59:13.917Z,42.78
2023-03-20T20:01:43.100Z,32.45
2023-03-20T20:04:10.496Z,27.02
2023-03-20T20:06:39.779Z,26.23
2023-03-20T20:09:07.641Z,25.33
2023-03-20T20:11:34.734Z,21.98
2023-03-20T20:14:07.195Z,21.33
2023-03-20T20:16:37.189Z,23.90
2023-03-20T20:19:04.718Z,28.75
2023-03-20T20:24:21.801Z,20.80
2023-03-20T20:27:03.040Z,23.48
2023-03-20T20:29:34.673Z,21.30
2023-03-20T20:32:04.520Z,20.02
2023-03-20T20:38:03.169Z,22.65
2023-03-20T20:40:14.801Z,29.55
2023-03-20T20:42:41.912Z,21.63
2023-03-20T20:45:11.041Z,18.90
2023-03-20T20:47:41.307Z,20.45
2023-03-20T20:50:09.118Z,17.88
2023-03-20T20:52:36.743Z,19.67
2023-03-20T20:55:21.676Z,19.05
2023-03-20T20:57:51.544Z,24.67
2023-03-20T21:00:20.212Z,37.97
2023-03-20T21:02:47.355Z,38.20
2023-03-20T21:05:18.633Z,24.25
2023-03-20T21:07:47.793Z,19.77
2023-03-20T21:10:19.588Z,19.05
2023-03-20T21:12:58.426Z,19.83
2023-03-20T21:15:27.424Z,20.55
2023-03-20T21:18:01.054Z,19.13
2023-03-20T21:20:33.666Z,17.02
2023-03-20T21:23:00.975Z,19.58
2023-03-20T21:25:39.630Z,20.48
2023-03-20T21:28:10.456Z,18.58
2023-03-20T21:30:49.917Z,18.90
2023-03-20T21:33:26.536Z,18.63
2023-03-20T21:35:53.980Z,20.05
2023-03-20T21:41:15.056Z,43.50
2023-03-20T21:43:43.039Z,18.88
2023-03-20T21:46:58.712Z,16.98
2023-03-20T21:49:46.549Z,17.85
2023-03-20T22:01:00.855Z,23.80
2023-03-20T22:02:58.871Z,24.10
2023-03-20T22:06:02.405Z,19.38
2023-03-20T22:09:13.806Z,25.03
2023-03-20T22:12:01.872Z,25.80
2023-03-20T22:14:51.717Z,18.48
2023-03-20T22:25:50.732Z,17.83
2023-03-20T22:28:34.370Z,16.42
2023-03-20T22:34:23.982Z,16.08
2023-03-20T22:37:17.033Z,13.65
2023-03-20T22:45:00.560Z,14.15
2023-03-20T22:47:30.924Z,13.60
2023-03-20T22:50:00.415Z,15.73
2023-03-20T22:52:41.589Z,12.93
2023-03-20T22:55:09.569Z,38.20
2023-03-20T22:57:45.497Z,28.83
2023-03-20T23:00:22.629Z,17.48
2023-03-20T23:02:52.855Z,14.07
2023-03-20T23:05:20.183Z,15.15
2023-03-20T23:07:50.045Z,16.80
2023-03-20T23:10:17.405Z,15.27
2023-03-20T23:12:47.010Z,13.20
2023-03-20T23:15:14.114Z,15.27
2023-03-20T23:17:43.956Z,15.32
2023-03-20T23:20:14.025Z,18.25
2023-03-20T23:22:49.513Z,15.13
2023-03-20T23:25:30.738Z,14.90
2023-03-20T23:28:04.105Z,15.75
2023-03-20T23:30:44.932Z,14.75
2023-03-20T23:35:42.361Z,14.20
2023-03-20T23:38:11.954Z,15.63
2023-03-20T23:40:41.210Z,16.58
2023-03-20T23:43:13.353Z,16.88
2023-03-20T23:45:42.703Z,16.85
2023-03-20T23:48:10.159Z,16.40
2023-03-20T23:50:51.883Z,15.05
2023-03-20T23:53:21.234Z,16.20
2023-03-20T23:55:50.626Z,12.95
2023-03-20T23:58:18.572Z,12.95
